createdAt,value
2023-01-27T00:00:28.117Z,11.95
2023-01-27T00:03:31.708Z,11.15
2023-01-27T00:06:35.280Z,11.65
2023-01-27T00:09:39.043Z,11.52
2023-01-27T00:13:02.503Z,11.13
2023-01-27T00:16:06.361Z,11.68
2023-01-27T00:19:10.005Z,10.48
2023-01-27T00:22:31.984Z,11.13
2023-01-27T00:25:35.506Z,10.25
2023-01-27T00:28:40.354Z,9.52
2023-01-27T00:32:02.761Z,10.50
2023-01-27T00:35:07.125Z,10.77
2023-01-27T00:38:10.618Z,10.10
2023-01-27T00:41:19.905Z,9.27
2023-01-27T00:44:24.096Z,9.07
2023-01-27T00:47:27.584Z,8.53
2023-01-27T00:50:31.211Z,8.43
2023-01-27T00:53:35.016Z,9.23
2023-01-27T00:56:38.643Z,8.43
2023-01-27T00:59:42.135Z,8.93
2023-01-27T01:02:45.706Z,8.45
2023-01-27T01:05:50.200Z,8.35
2023-01-27T01:08:56.832Z,8.18
2023-01-27T01:12:00.372Z,8.00
2023-01-27T01:15:03.933Z,8.15
2023-01-27T01:18:09.132Z,7.53
2023-01-27T01:21:13.779Z,8.35
2023-01-27T01:24:17.317Z,7.13
2023-01-27T01:27:20.849Z,8.32
2023-01-27T01:30:26.491Z,7.35
2023-01-27T01:33:29.963Z,7.05
2023-01-27T01:36:34.720Z,7.17
2023-01-27T01:39:40.716Z,6.97
2023-01-27T01:43:04.077Z,7.30
2023-01-27T01:46:11.217Z,6.85
2023-01-27T01:49:16.390Z,6.80
2023-01-27T01:52:22.103Z,6.90
2023-01-27T01:55:25.807Z,6.80
2023-01-27T01:58:31.251Z,6.30
2023-01-27T02:01:34.796Z,6.37
2023-01-27T02:05:00.508Z,6.65
2023-01-27T02:08:18.010Z,6.50
2023-01-27T02:11:22.095Z,6.55
2023-01-27T02:14:26.126Z,6.80
2023-01-27T02:17:29.874Z,5.82
2023-01-27T02:20:55.856Z,6.20
2023-01-27T02:24:12.430Z,6.68
2023-01-27T02:27:16.028Z,7.28
2023-01-27T02:30:22.156Z,7.13
2023-01-27T02:33:26.291Z,6.13
2023-01-27T02:36:33.721Z,6.70
2023-01-27T02:39:41.891Z,6.18
2023-01-27T02:42:45.389Z,6.10
2023-01-27T02:45:48.942Z,6.38
2023-01-27T02:48:52.615Z,6.50
2023-01-27T02:51:56.287Z,6.53
2023-01-27T02:54:59.976Z,5.97
2023-01-27T02:58:03.981Z,6.72
2023-01-27T03:01:25.468Z,5.78
2023-01-27T03:04:29.074Z,5.75
2023-01-27T03:07:34.181Z,5.87
2023-01-27T03:10:37.706Z,6.03
2023-01-27T03:13:41.306Z,6.53
2023-01-27T03:17:03.114Z,5.72
2023-01-27T03:20:09.951Z,6.10
2023-01-27T03:23:16.838Z,6.03
2023-01-27T03:26:24.705Z,6.28
2023-01-27T03:29:50.635Z,6.28
2023-01-27T03:32:55.102Z,6.35
2023-01-27T03:36:49.718Z,6.50
2023-01-27T03:40:11.729Z,6.35
2023-01-27T03:43:33.863Z,5.97
2023-01-27T03:46:37.427Z,5.70
2023-01-27T03:49:40.930Z,6.30
2023-01-27T03:53:03.113Z,6.30
2023-01-27T03:56:07.156Z,6.47
2023-01-27T03:59:10.631Z,6.30
2023-01-27T04:02:32.713Z,7.47
2023-01-27T04:05:54.812Z,6.83
2023-01-27T04:08:59.099Z,6.53
2023-01-27T04:12:04.980Z,6.25
2023-01-27T04:15:09.005Z,7.47
2023-01-27T04:18:12.483Z,6.10
2023-01-27T04:21:16.607Z,6.13
2023-01-27T04:24:23.585Z,6.13
2023-01-27T04:27:27.411Z,6.07
2023-01-27T04:30:31.910Z,6.00
2023-01-27T04:33:35.430Z,6.43
2023-01-27T04:36:39.918Z,7.82
2023-01-27T04:39:45.710Z,7.00
2023-01-27T04:42:49.390Z,6.30
2023-01-27T04:45:52.878Z,7.63
2023-01-27T04:48:56.687Z,7.13
2023-01-27T04:52:00.346Z,7.32
2023-01-27T04:55:03.843Z,7.57
2023-01-27T04:58:07.373Z,7.40
2023-01-27T05:01:11.018Z,7.05
2023-01-27T05:04:14.718Z,6.65
2023-01-27T05:07:18.374Z,6.90
2023-01-27T05:10:22.106Z,6.32
2023-01-27T05:13:25.616Z,6.80
2023-01-27T05:16:29.039Z,7.97
2023-01-27T05:19:32.759Z,9.10
2023-01-27T05:22:36.403Z,8.48
2023-01-27T05:25:43.373Z,7.80
2023-01-27T05:28:49.183Z,7.05
2023-01-27T05:31:52.727Z,6.60
2023-01-27T05:34:56.258Z,7.22
2023-01-27T05:37:59.932Z,7.07
2023-01-27T05:41:05.604Z,6.70
2023-01-27T05:44:11.753Z,7.93
2023-01-27T05:47:15.190Z,6.53
2023-01-27T05:50:19.444Z,6.93
2023-01-27T05:53:24.039Z,7.78
2023-01-27T05:56:27.661Z,6.80
2023-01-27T05:59:31.093Z,7.75
2023-01-27T06:02:35.034Z,7.55
2023-01-27T06:05:38.594Z,7.68
2023-01-27T06:08:42.689Z,7.03
2023-01-27T06:11:47.450Z,6.85
2023-01-27T06:14:51.104Z,7.18
2023-01-27T06:17:54.542Z,6.90
2023-01-27T06:21:02.275Z,8.07
2023-01-27T06:24:06.175Z,8.65
2023-01-27T06:27:11.200Z,7.45
2023-01-27T06:30:14.940Z,10.95
2023-01-27T06:33:19.430Z,9.88
2023-01-27T06:36:23.515Z,8.50
2023-01-27T06:39:27.001Z,9.48
2023-01-27T06:42:31.105Z,7.50
2023-01-27T06:45:34.558Z,7.95
2023-01-27T06:48:38.340Z,7.13
2023-01-27T06:51:41.902Z,6.82
2023-01-27T06:54:45.436Z,6.50
2023-01-27T06:57:48.960Z,7.60
2023-01-27T07:00:52.707Z,6.47
2023-01-27T07:03:56.887Z,5.93
2023-01-27T07:07:00.472Z,6.85
2023-01-27T07:10:05.586Z,7.10
2023-01-27T07:13:11.775Z,5.80
2023-01-27T07:16:15.262Z,5.70
2023-01-27T07:19:18.971Z,6.28
2023-01-27T07:22:22.766Z,6.63
2023-01-27T07:25:26.839Z,8.07
2023-01-27T07:28:30.289Z,7.68
2023-01-27T07:31:34.612Z,8.32
2023-01-27T07:34:38.052Z,8.02
2023-01-27T07:37:41.662Z,7.37
2023-01-27T07:40:45.371Z,6.95
2023-01-27T07:43:50.718Z,8.55
2023-01-27T07:46:55.558Z,9.00
2023-01-27T07:49:59.431Z,7.47
2023-01-27T07:53:05.460Z,7.22
2023-01-27T07:56:12.527Z,8.77
2023-01-27T07:59:16.428Z,7.45
2023-01-27T08:02:19.972Z,7.45
2023-01-27T08:05:23.929Z,6.18
2023-01-27T08:08:27.434Z,7.30
2023-01-27T08:11:31.039Z,7.78
2023-01-27T08:14:34.736Z,7.28
2023-01-27T08:17:38.330Z,7.30
2023-01-27T08:20:41.875Z,6.22
2023-01-27T08:23:45.827Z,6.60
2023-01-27T08:26:49.291Z,8.07
2023-01-27T08:29:53.472Z,7.82
2023-01-27T08:32:56.975Z,8.90
2023-01-27T08:36:06.019Z,11.10
2023-01-27T08:39:10.649Z,8.38
2023-01-27T08:42:14.194Z,6.97
2023-01-27T08:45:18.044Z,7.05
2023-01-27T08:48:22.881Z,7.17
2023-01-27T08:51:26.954Z,6.35
2023-01-27T08:54:30.670Z,6.70
2023-01-27T08:57:36.485Z,7.40
2023-01-27T09:00:40.543Z,8.13
2023-01-27T09:03:44.057Z,6.67
2023-01-27T09:06:48.528Z,6.65
2023-01-27T09:10:01.016Z,6.93
2023-01-27T09:13:11.663Z,6.93
2023-01-27T09:16:16.204Z,7.45
2023-01-27T09:19:19.821Z,6.83
2023-01-27T09:22:23.377Z,7.10
2023-01-27T09:25:26.776Z,7.45
2023-01-27T09:28:30.295Z,7.68
2023-01-27T09:31:33.845Z,8.25
2023-01-27T09:34:37.413Z,7.93
2023-01-27T09:37:53.199Z,7.05
2023-01-27T09:41:21.782Z,7.32
2023-01-27T09:44:38.386Z,7.55
2023-01-27T09:47:51.660Z,7.85
2023-01-27T09:51:13.741Z,8.40
2023-01-27T09:54:38.779Z,7.78
2023-01-27T09:58:06.946Z,8.23
2023-01-27T10:01:34.053Z,9.15
2023-01-27T10:04:37.820Z,9.50
2023-01-27T10:08:14.385Z,8.40
2023-01-27T10:11:43.919Z,8.32
2023-01-27T10:14:54.850Z,8.25
2023-01-27T10:18:11.169Z,8.82
2023-01-27T10:21:27.622Z,8.38
2023-01-27T10:24:58.348Z,7.90
2023-01-27T10:28:12.659Z,7.53
2023-01-27T10:31:29.596Z,7.50
2023-01-27T10:34:42.813Z,8.68
2023-01-27T10:37:52.435Z,6.90
2023-01-27T10:41:30.439Z,7.80
2023-01-27T10:44:49.171Z,6.80
2023-01-27T10:48:26.846Z,7.97
2023-01-27T10:52:03.836Z,7.07
2023-01-27T10:55:53.969Z,7.47
2023-01-27T10:59:26.570Z,7.90
2023-01-27T11:02:57.854Z,7.05
2023-01-27T11:06:08.708Z,8.15
2023-01-27T11:09:43.908Z,8.68
2023-01-27T11:12:54.747Z,10.77
2023-01-27T11:15:59.775Z,7.97
2023-01-27T11:19:14.076Z,9.32
2023-01-27T11:22:48.256Z,9.13
2023-01-27T11:25:57.847Z,8.45
2023-01-27T11:29:34.491Z,9.25
2023-01-27T11:32:47.184Z,9.27
2023-01-27T11:35:52.019Z,9.50
2023-01-27T11:38:56.601Z,11.10
2023-01-27T11:42:00.214Z,10.98
2023-01-27T11:45:05.877Z,12.02
2023-01-27T11:48:15.758Z,10.77
2023-01-27T11:51:25.517Z,9.95
2023-01-27T11:54:30.508Z,10.73
2023-01-27T11:57:36.023Z,10.85
2023-01-27T12:00:47.250Z,10.43
2023-01-27T12:04:08.243Z,11.47
2023-01-27T12:07:23.497Z,9.75
2023-01-27T12:10:36.376Z,10.73
2023-01-27T12:13:52.100Z,11.32
2023-01-27T12:16:55.848Z,11.00
2023-01-27T12:20:04.006Z,9.93
2023-01-27T12:23:31.764Z,11.05
2023-01-27T12:26:40.662Z,10.85
2023-01-27T12:29:51.541Z,11.60
2023-01-27T12:33:00.574Z,10.27
2023-01-27T12:36:22.775Z,12.23
2023-01-27T12:39:31.935Z,11.68
2023-01-27T12:42:44.437Z,13.02
2023-01-27T12:46:04.172Z,11.77
2023-01-27T12:49:15.084Z,13.45
2023-01-27T12:52:22.477Z,12.13
2023-01-27T12:55:32.083Z,11.38
2023-01-27T12:58:37.577Z,11.82
2023-01-27T13:01:51.127Z,10.65
2023-01-27T13:04:59.934Z,11.48
2023-01-27T13:08:04.010Z,10.60
2023-01-27T13:11:10.255Z,10.68
2023-01-27T13:14:18.754Z,11.00
2023-01-27T13:17:28.077Z,11.30
2023-01-27T13:20:47.207Z,12.48
2023-01-27T13:23:53.417Z,11.50
2023-01-27T13:26:58.010Z,11.20
2023-01-27T13:30:15.066Z,10.77
2023-01-27T13:33:35.102Z,11.85
2023-01-27T13:36:56.984Z,12.10
2023-01-27T13:40:24.166Z,13.60
2023-01-27T13:43:46.200Z,12.25
2023-01-27T13:46:53.171Z,13.50
2023-01-27T13:50:09.974Z,14.30
2023-01-27T13:53:16.625Z,11.90
2023-01-27T13:56:42.451Z,13.80
2023-01-27T14:00:04.958Z,13.10
2023-01-27T14:03:59.987Z,17.05
2023-01-27T14:07:33.356Z,19.17
2023-01-27T14:10:41.837Z,19.27
2023-01-27T14:14:17.145Z,16.40
2023-01-27T14:17:36.625Z,19.25
2023-01-27T14:21:08.839Z,13.95
2023-01-27T14:24:34.628Z,12.95
2023-01-27T14:27:46.100Z,12.40
2023-01-27T14:31:05.261Z,13.37
2023-01-27T14:34:37.677Z,12.90
2023-01-27T14:38:10.001Z,13.93
2023-01-27T14:41:35.398Z,12.65
2023-01-27T14:45:03.732Z,13.48
2023-01-27T14:48:29.181Z,12.27
2023-01-27T14:51:46.167Z,13.50
2023-01-27T14:54:59.051Z,12.00
2023-01-27T14:58:14.027Z,12.13
2023-01-27T15:01:45.766Z,13.23
2023-01-27T15:04:55.357Z,12.53
2023-01-27T15:08:06.313Z,12.68
2023-01-27T15:11:25.048Z,12.07
2023-01-27T15:14:54.539Z,12.68
2023-01-27T15:18:06.479Z,12.95
2023-01-27T15:21:37.141Z,13.60
2023-01-27T15:24:59.284Z,14.90
2023-01-27T15:28:04.676Z,15.23
2023-01-27T15:31:14.255Z,13.63
2023-01-27T15:34:23.419Z,16.00
2023-01-27T15:37:30.746Z,15.30
2023-01-27T15:40:55.915Z,13.52
2023-01-27T15:44:18.941Z,13.45
2023-01-27T15:47:26.452Z,12.60
2023-01-27T15:50:33.307Z,13.07
2023-01-27T15:53:44.916Z,12.87
2023-01-27T15:56:53.520Z,12.75
2023-01-27T16:00:22.284Z,12.73
2023-01-27T16:03:38.013Z,11.77
2023-01-27T16:07:03.631Z,11.90
2023-01-27T16:10:14.592Z,12.80
2023-01-27T16:13:30.311Z,13.23
2023-01-27T16:16:35.591Z,13.80
2023-01-27T16:19:59.508Z,12.43
2023-01-27T16:23:11.727Z,11.68
2023-01-27T16:26:21.164Z,11.30
2023-01-27T16:29:49.684Z,12.68
2023-01-27T16:33:37.647Z,15.55
2023-01-27T16:36:41.328Z,14.43
2023-01-27T16:39:50.249Z,15.15
2023-01-27T16:42:53.635Z,14.80
2023-01-27T16:45:59.904Z,13.35
2023-01-27T16:49:14.692Z,13.73
2023-01-27T16:52:40.707Z,12.90
2023-01-27T16:56:05.992Z,13.70
2023-01-27T16:59:18.523Z,10.50
2023-01-27T17:02:26.298Z,11.38
2023-01-27T17:05:30.168Z,11.13
2023-01-27T17:08:37.097Z,12.15
2023-01-27T17:11:42.764Z,11.97
2023-01-27T17:14:47.441Z,9.55
2023-01-27T17:17:52.231Z,10.70
2023-01-27T17:20:57.032Z,11.90
2023-01-27T17:24:07.742Z,10.85
2023-01-27T17:27:36.478Z,10.83
2023-01-27T17:30:42.262Z,14.70
2023-01-27T17:33:48.826Z,12.10
2023-01-27T17:37:07.256Z,12.57
2023-01-27T17:40:18.902Z,11.50
2023-01-27T17:43:36.056Z,11.63
2023-01-27T17:46:41.049Z,12.73
2023-01-27T17:49:47.466Z,12.07
2023-01-27T17:52:53.955Z,12.50
2023-01-27T17:55:57.758Z,11.03
2023-01-27T17:59:16.186Z,12.27
2023-01-27T18:02:30.578Z,13.02
2023-01-27T18:05:34.644Z,13.00
2023-01-27T18:08:40.216Z,13.77
2023-01-27T18:12:00.171Z,11.53
2023-01-27T18:15:37.560Z,11.45
2023-01-27T18:18:41.891Z,11.63
2023-01-27T18:21:45.513Z,12.05
2023-01-27T18:25:00.325Z,11.00
2023-01-27T18:28:04.168Z,12.20
2023-01-27T18:31:18.626Z,11.73
2023-01-27T18:34:29.377Z,12.68
2023-01-27T18:37:36.359Z,14.23
2023-01-27T18:40:40.597Z,10.98
2023-01-27T18:43:44.464Z,9.60
2023-01-27T18:46:48.265Z,8.50
2023-01-27T18:50:14.071Z,8.00
2023-01-27T18:53:20.657Z,8.07
2023-01-27T18:56:24.307Z,7.15
2023-01-27T18:59:28.083Z,6.70
2023-01-27T19:02:32.073Z,8.52
2023-01-27T19:05:36.957Z,6.60
2023-01-27T19:08:44.309Z,7.47
2023-01-27T19:11:48.869Z,7.32
2023-01-27T19:14:52.455Z,7.93
2023-01-27T19:17:58.535Z,7.50
2023-01-27T19:21:03.793Z,7.57
2023-01-27T19:24:11.061Z,7.43
2023-01-27T19:27:17.613Z,7.28
2023-01-27T19:30:27.180Z,8.13
2023-01-27T19:33:32.725Z,8.32
2023-01-27T19:36:44.235Z,10.20
2023-01-27T19:39:49.248Z,9.90
2023-01-27T19:42:53.290Z,9.30
2023-01-27T19:45:56.812Z,9.70
2023-01-27T19:49:00.526Z,9.27
2023-01-27T19:52:04.330Z,9.52
2023-01-27T19:55:08.681Z,9.43
2023-01-27T19:58:27.066Z,10.73
2023-01-27T20:01:30.842Z,10.20
2023-01-27T20:04:34.408Z,8.23
2023-01-27T20:07:38.874Z,7.73
2023-01-27T20:10:43.273Z,7.82
2023-01-27T20:13:46.942Z,7.25
2023-01-27T20:16:50.710Z,7.10
2023-01-27T20:19:54.238Z,7.55
2023-01-27T20:22:58.111Z,7.82
2023-01-27T20:26:03.404Z,7.45
2023-01-27T20:29:07.101Z,6.70
2023-01-27T20:32:10.937Z,8.75
2023-01-27T20:35:17.100Z,9.00
2023-01-27T20:38:20.822Z,8.88
2023-01-27T20:41:25.809Z,9.40
2023-01-27T20:44:29.650Z,9.93
2023-01-27T20:47:33.591Z,9.80
2023-01-27T20:50:37.312Z,10.00
2023-01-27T20:53:45.631Z,10.80
2023-01-27T20:56:49.406Z,10.37
2023-01-27T20:59:53.059Z,9.13
2023-01-27T21:02:57.574Z,9.63
2023-01-27T21:06:01.422Z,8.52
2023-01-27T21:09:05.778Z,9.10
2023-01-27T21:12:09.243Z,9.13
2023-01-27T21:15:13.213Z,9.52
2023-01-27T21:18:17.657Z,9.10
2023-01-27T21:21:24.553Z,9.67
2023-01-27T21:24:28.358Z,10.23
2023-01-27T21:27:31.987Z,10.50
2023-01-27T21:30:36.965Z,10.60
2023-01-27T21:33:40.616Z,9.47
2023-01-27T21:36:44.008Z,10.45
2023-01-27T21:39:47.519Z,9.82
2023-01-27T21:43:09.885Z,10.15
2023-01-27T21:46:13.349Z,10.07
2023-01-27T21:49:16.975Z,10.55
2023-01-27T21:52:21.285Z,10.27
2023-01-27T21:55:28.072Z,10.27
2023-01-27T21:58:33.115Z,10.07
2023-01-27T22:01:36.922Z,9.50
2023-01-27T22:04:44.823Z,9.95
2023-01-27T22:07:48.471Z,8.63
2023-01-27T22:10:52.392Z,9.00
2023-01-27T22:13:55.964Z,8.73
2023-01-27T22:16:59.664Z,7.93
2023-01-27T22:20:04.582Z,9.27
2023-01-27T22:23:08.600Z,8.43
2023-01-27T22:26:12.028Z,8.35
2023-01-27T22:29:15.543Z,9.20
2023-01-27T22:32:19.039Z,9.52
2023-01-27T22:35:22.486Z,9.20
2023-01-27T22:38:25.901Z,8.70
2023-01-27T22:41:29.976Z,8.35
2023-01-27T22:44:33.472Z,8.90
2023-01-27T22:47:37.167Z,8.70
2023-01-27T22:50:42.121Z,8.88
2023-01-27T22:53:47.152Z,8.68
2023-01-27T22:56:50.648Z,9.38
2023-01-27T22:59:54.157Z,8.87
2023-01-27T23:02:57.645Z,6.95
2023-01-27T23:06:05.373Z,8.15
2023-01-27T23:09:10.283Z,8.68
2023-01-27T23:12:14.010Z,8.43
2023-01-27T23:15:17.835Z,8.57
2023-01-27T23:18:21.716Z,8.18
2023-01-27T23:21:25.407Z,9.85
2023-01-27T23:24:29.029Z,7.40
2023-01-27T23:27:33.166Z,9.02
2023-01-27T23:30:36.840Z,8.70
2023-01-27T23:33:42.306Z,8.73
2023-01-27T23:36:45.684Z,8.23
2023-01-27T23:39:49.901Z,8.90
2023-01-27T23:42:53.395Z,7.68
2023-01-27T23:45:57.067Z,7.75
2023-01-27T23:49:00.570Z,7.67
2023-01-27T23:52:04.102Z,8.20
2023-01-27T23:55:07.983Z,8.30
2023-01-27T23:58:11.551Z,7.90
